LGKZ/KZI METAR and TAF weather

Enter ICAO airport designator
Station Type Date Time Source
LGKZ METAR 2022/07/01 00:50 UTC NOAA

LGKZ 010050Z AUTO VRB03KT //// // ////// 19/15 Q1017 RE//


Station Type Date Time Source
LGKZ Decoded METAR 2022/07/01 00:50 UTC NOAA

Kozani Airport , Greece (LGKZ) 40-18N 021-47E 627M
Jun 30, 2022 - 08:50 PM EDT / 2022.07.01 0050 UTC
Wind: Variable at 3 MPH (3 KT):0
Temperature: 66 F (19 C)
Dew Point: 59 F (15 C)
Relative Humidity: 77%
Pressure (altimeter): 30.03 in. Hg (1017 hPa)
ob: LGKZ 010050Z AUTO VRB03KT //// // ////// 19/15 Q1017 RE//
cycle: 1

Station Type Date Time Source
LGKZ TAF UTC NOAA

Error!

Example: see airport list